• Join FlightAware (Why Join?)
  • Login
  • US Flag 
10:23PM EST


 

Airport Tracker/Info


-or-


 

Live Flight TrackerFlight Track Log ✈ WAE5 ✈ 14-May-2013 ✈ KSLC - KPIH

Flight Track Log - Related Links

Times and Time Zones

All times are in EDT time to prevent confusion due to time zone crossing. See the WAE5 flight status page for this flight to view local times or setup timezone preferences in your user account.

Time Position Orientation Groundspeed Altitude Reporting Facility
EDT Latitude Longitude Course Direction KTS MPH feet Rate Location/Type
08:48AM 40.7614 -111.9692 291° West 125 144 4,800  Level Salt Lake Center
08:48AM 40.7689 -111.9950 291° West 111 128 5,200 600 Climbing Salt Lake Center
08:49AM 40.7928 -112.0294 312° West 117 135 5,900 480 Climbing Salt Lake Center
08:50AM 40.7983 -112.0353 322° Northwest 115 132 6,000 480 Climbing Salt Lake Center
08:50AM 40.8147 -112.0644 307° West 121 139 6,400 540 Climbing Salt Lake Center
08:51AM 40.8197 -112.0700 320° Northwest 120 138 6,600 720 Climbing Salt Lake Center
08:51AM 40.8306 -112.0903 305° West 119 137 7,000 660 Climbing Salt Lake Center
08:52AM 40.8378 -112.1031 307° West 112 129 7,300 420 Climbing Salt Lake Center
08:52AM 40.8467 -112.1189 307° West 111 128 7,400 360 Climbing Salt Lake Center
08:53AM 40.8581 -112.1347 314° West 113 130 7,700 600 Climbing Salt Lake Center
08:53AM 40.8681 -112.1511 309° West 111 128 8,000 480 Climbing Salt Lake Center
08:54AM 40.8772 -112.1686 305° West 115 132 8,200 420 Climbing Salt Lake Center
08:54AM 40.8892 -112.1922 304° West 123 142 8,500 480 Climbing Salt Lake Center
08:55AM 40.9006 -112.1994 334° Northwest 122 140 8,700 540 Climbing Salt Lake Center
08:55AM 40.9200 -112.2075 343° North 118 136 9,100 780 Climbing Salt Lake Center
08:56AM 40.9389 -112.2097 355° North 117 135 9,500 540 Climbing Salt Lake Center
08:56AM 40.9539 -112.2158 343° North 116 133 9,700 360 Climbing Salt Lake Center
08:57AM 40.9706 -112.2219 345° North 118 136 9,900 300 Climbing Salt Lake Center
08:57AM 40.9878 -112.2244 354° North 131 151 10,000 60 Climbing Salt Lake Center
08:58AM 41.0106 -112.2236 North 145 167 10,000  Level Salt Lake Center
08:58AM 41.0328 -112.2233 North 156 180 10,000  Level Salt Lake Center
08:59AM 41.0558 -112.2253 356° North 162 186 10,000  Level Salt Lake Center
08:59AM 41.0789 -112.2278 355° North 169 194 10,000  Level Salt Lake Center
09:00AM 41.1039 -112.2281 360° North 171 197 10,000  Level Salt Lake Center
09:01AM 41.1389 -112.2272 North 174 200 10,000  Level Salt Lake Center
09:01AM 41.1531 -112.2275 359° North 175 201 10,000 120 Level Salt Lake Center
09:01AM 41.1806 -112.2303 356° North 175 201 10,100  Climbing Salt Lake Center
09:02AM 41.2017 -112.2336 353° North 175 201 10,000 -120 Descending Salt Lake Center
09:02AM 41.2258 -112.2319 North 177 204 10,000  Level Salt Lake Center
09:03AM 41.2508 -112.2358 353° North 175 201 10,000  Level Salt Lake Center
09:04AM 41.3011 -112.2408 356° North 180 207 10,000  Level Salt Lake Center
09:05AM 41.3503 -112.2442 357° North 177 204 10,000  Level Salt Lake Center
09:06AM 41.4011 -112.2419 North 181 208 10,000  Level Salt Lake Center
09:07AM 41.4519 -112.2414 360° North 184 212 10,000  Level Salt Lake Center
09:08AM 41.5025 -112.2422 359° North 182 209 10,000  Level Salt Lake Center
09:09AM 41.5536 -112.2356 North 184 212 10,000  Level Salt Lake Center
09:10AM 41.6044 -112.2283 North 184 212 10,100  Climbing Salt Lake Center
09:11AM 41.6514 -112.2475 343° North 177 204 10,000 -60 Descending Salt Lake Center
09:12AM 41.6969 -112.2739 337° Northwest 177 204 10,000  Level Salt Lake Center
09:13AM 41.7469 -112.2925 344° North 184 212 10,000  Level Salt Lake Center
09:14AM 41.7950 -112.3056 349° North 178 205 10,000 -60 Level Salt Lake Center
09:15AM 41.8533 -112.3222 348° North 178 205 9,900  Descending Salt Lake Center
09:16AM 41.9039 -112.3267 356° North 179 206 10,000  Climbing Salt Lake Center
09:17AM 41.9511 -112.3436 345° North 178 205 10,000  Level Salt Lake Center
09:18AM 41.9958 -112.3694 337° Northwest 177 204 10,000  Level Salt Lake Center
09:19AM 42.0411 -112.3914 340° North 175 201 10,000  Level Salt Lake Center
09:20AM 42.0878 -112.4047 348° North 172 198 10,000  Level Salt Lake Center
09:21AM 42.1319 -112.4239 342° North 170 196 10,000  Level Salt Lake Center
09:22AM 42.1783 -112.4408 345° North 170 196 10,000  Level Salt Lake Center
09:23AM 42.2236 -112.4603 342° North 171 197 10,000  Level Salt Lake Center
09:24AM 42.2703 -112.4767 345° North 172 198 10,000  Level Salt Lake Center
09:25AM 42.3158 -112.4892 349° North 170 196 10,000  Level Salt Lake Center
09:26AM 42.3631 -112.5014 349° North 170 196 10,000  Level Salt Lake Center
09:27AM 42.4083 -112.5147 348° North 169 194 10,000  Level Salt Lake Center